sensor_id;sensor_type;location;lat;lon;timestamp;pressure;altitude;pressure_sealevel;temperature;humidity
62952;BME280;52163;52.212;-1.002;2022-12-22T00:02:39;99223.73;;;4.07;100.00
62952;BME280;52163;52.212;-1.002;2022-12-22T00:05:24;99231.49;;;4.13;100.00
62952;BME280;52163;52.212;-1.002;2022-12-22T00:08:08;99227.57;;;4.15;100.00
62952;BME280;52163;52.212;-1.002;2022-12-22T00:10:54;99230.42;;;4.17;100.00
62952;BME280;52163;52.212;-1.002;2022-12-22T00:13:40;99223.14;;;4.19;100.00
62952;BME280;52163;52.212;-1.002;2022-12-22T00:16:30;99220.35;;;4.25;100.00
62952;BME280;52163;52.212;-1.002;2022-12-22T00:19:15;99213.02;;;4.35;100.00
62952;BME280;52163;52.212;-1.002;2022-12-22T00:22:00;99209.60;;;4.40;100.00
62952;BME280;52163;52.212;-1.002;2022-12-22T00:24:45;99198.38;;;4.40;100.00
62952;BME280;52163;52.212;-1.002;2022-12-22T00:27:30;99190.15;;;4.40;100.00
62952;BME280;52163;52.212;-1.002;2022-12-22T00:30:15;99192.08;;;4.37;100.00
62952;BME280;52163;52.212;-1.002;2022-12-22T00:33:01;99192.33;;;4.32;100.00
62952;BME280;52163;52.212;-1.002;2022-12-22T00:35:47;99187.30;;;4.28;100.00
62952;BME280;52163;52.212;-1.002;2022-12-22T00:38:32;99188.77;;;4.24;100.00
62952;BME280;52163;52.212;-1.002;2022-12-22T00:41:16;99192.67;;;4.20;100.00
62952;BME280;52163;52.212;-1.002;2022-12-22T00:44:00;99188.10;;;4.14;100.00
62952;BME280;52163;52.212;-1.002;2022-12-22T00:46:45;99186.82;;;4.05;100.00
62952;BME280;52163;52.212;-1.002;2022-12-22T00:49:31;99186.38;;;3.97;100.00
62952;BME280;52163;52.212;-1.002;2022-12-22T00:52:17;99183.88;;;3.91;100.00
62952;BME280;52163;52.212;-1.002;2022-12-22T00:55:02;99186.27;;;3.92;100.00
62952;BME280;52163;52.212;-1.002;2022-12-22T00:57:46;99186.27;;;3.96;100.00
62952;BME280;52163;52.212;-1.002;2022-12-22T01:00:30;99185.98;;;3.98;100.00
62952;BME280;52163;52.212;-1.002;2022-12-22T01:03:15;99186.05;;;4.00;100.00
62952;BME280;52163;52.212;-1.002;2022-12-22T01:06:00;99188.73;;;3.99;100.00
62952;BME280;52163;52.212;-1.002;2022-12-22T01:08:46;99192.99;;;3.95;100.00
62952;BME280;52163;52.212;-1.002;2022-12-22T01:11:32;99187.05;;;3.91;100.00
62952;BME280;52163;52.212;-1.002;2022-12-22T01:14:17;99189.08;;;3.92;100.00
62952;BME280;52163;52.212;-1.002;2022-12-22T01:17:01;99190.58;;;3.94;100.00
62952;BME280;52163;52.212;-1.002;2022-12-22T01:19:45;99189.40;;;3.96;100.00
62952;BME280;52163;52.212;-1.002;2022-12-22T01:22:29;99191.30;;;4.00;100.00
62952;BME280;52163;52.212;-1.002;2022-12-22T01:25:16;99189.29;;;3.98;100.00
62952;BME280;52163;52.212;-1.002;2022-12-22T01:28:01;99193.20;;;3.94;100.00
62952;BME280;52163;52.212;-1.002;2022-12-22T01:30:45;99192.80;;;3.91;100.00
62952;BME280;52163;52.212;-1.002;2022-12-22T01:33:30;99196.35;;;3.93;100.00
62952;BME280;52163;52.212;-1.002;2022-12-22T01:36:14;99201.32;;;3.98;100.00
62952;BME280;52163;52.212;-1.002;2022-12-22T01:38:58;99205.77;;;4.03;100.00
62952;BME280;52163;52.212;-1.002;2022-12-22T01:41:43;99204.86;;;4.11;100.00
62952;BME280;52163;52.212;-1.002;2022-12-22T01:44:27;99199.40;;;4.15;100.00
62952;BME280;52163;52.212;-1.002;2022-12-22T01:50:16;99202.23;;;4.18;100.00
62952;BME280;52163;52.212;-1.002;2022-12-22T01:53:02;99194.60;;;4.20;100.00
62952;BME280;52163;52.212;-1.002;2022-12-22T01:55:48;99192.76;;;4.25;100.00
62952;BME280;52163;52.212;-1.002;2022-12-22T01:58:37;99187.60;;;4.29;100.00
62952;BME280;52163;52.212;-1.002;2022-12-22T02:01:23;99191.91;;;4.27;100.00
62952;BME280;52163;52.212;-1.002;2022-12-22T02:04:08;99193.75;;;4.23;100.00
62952;BME280;52163;52.212;-1.002;2022-12-22T02:06:56;99190.05;;;4.17;100.00
62952;BME280;52163;52.212;-1.002;2022-12-22T02:16:15;99185.84;;;4.01;100.00
62952;BME280;52163;52.212;-1.002;2022-12-22T02:19:09;99186.34;;;4.01;100.00
62952;BME280;52163;52.212;-1.002;2022-12-22T02:22:19;99189.73;;;4.00;100.00
62952;BME280;52163;52.212;-1.002;2022-12-22T02:25:10;99194.77;;;3.94;100.00
62952;BME280;52163;52.212;-1.002;2022-12-22T02:27:57;99199.62;;;3.85;100.00
62952;BME280;52163;52.212;-1.002;2022-12-22T02:30:43;99202.33;;;3.76;100.00
62952;BME280;52163;52.212;-1.002;2022-12-22T02:33:28;99201.96;;;3.70;100.00
62952;BME280;52163;52.212;-1.002;2022-12-22T02:39:34;99215.48;;;3.62;100.00
62952;BME280;52163;52.212;-1.002;2022-12-22T02:42:34;99203.13;;;3.58;100.00
62952;BME280;52163;52.212;-1.002;2022-12-22T02:45:28;99198.78;;;3.54;100.00
62952;BME280;52163;52.212;-1.002;2022-12-22T02:48:20;99202.67;;;3.53;100.00
62952;BME280;52163;52.212;-1.002;2022-12-22T02:51:10;99202.91;;;3.55;100.00
62952;BME280;52163;52.212;-1.002;2022-12-22T02:53:58;99209.81;;;3.56;100.00
62952;BME280;52163;52.212;-1.002;2022-12-22T02:56:43;99222.16;;;3.57;100.00
62952;BME280;52163;52.212;-1.002;2022-12-22T02:59:27;99221.71;;;3.59;100.00
62952;BME280;52163;52.212;-1.002;2022-12-22T03:02:12;99222.98;;;3.62;100.00
62952;BME280;52163;52.212;-1.002;2022-12-22T03:04:56;99223.52;;;3.68;100.00
62952;BME280;52163;52.212;-1.002;2022-12-22T03:07:40;99224.76;;;3.75;100.00
62952;BME280;52163;52.212;-1.002;2022-12-22T03:10:24;99226.63;;;3.79;100.00
62952;BME280;52163;52.212;-1.002;2022-12-22T03:13:09;99222.53;;;3.84;100.00
62952;BME280;52163;52.212;-1.002;2022-12-22T03:15:53;99219.30;;;3.86;100.00
62952;BME280;52163;52.212;-1.002;2022-12-22T03:18:37;99227.30;;;3.87;100.00
62952;BME280;52163;52.212;-1.002;2022-12-22T03:21:21;99234.25;;;3.87;100.00
62952;BME280;52163;52.212;-1.002;2022-12-22T03:24:05;99243.34;;;3.87;100.00
62952;BME280;52163;52.212;-1.002;2022-12-22T03:26:50;99253.25;;;3.88;100.00
62952;BME280;52163;52.212;-1.002;2022-12-22T03:29:15;99259.28;;;3.90;100.00
62952;BME280;52163;52.212;-1.002;2022-12-22T03:31:40;99260.89;;;3.89;100.00
62952;BME280;52163;52.212;-1.002;2022-12-22T03:34:06;99260.65;;;3.87;100.00
62952;BME280;52163;52.212;-1.002;2022-12-22T03:36:31;99255.14;;;3.85;100.00
62952;BME280;52163;52.212;-1.002;2022-12-22T03:38:57;99255.27;;;3.86;100.00
62952;BME280;52163;52.212;-1.002;2022-12-22T03:41:22;99258.40;;;3.87;100.00
62952;BME280;52163;52.212;-1.002;2022-12-22T03:44:06;99247.80;;;3.89;100.00
62952;BME280;52163;52.212;-1.002;2022-12-22T03:46:50;99242.74;;;3.92;100.00
62952;BME280;52163;52.212;-1.002;2022-12-22T03:49:16;99239.34;;;3.90;100.00
62952;BME280;52163;52.212;-1.002;2022-12-22T03:51:44;99233.21;;;3.87;100.00
62952;BME280;52163;52.212;-1.002;2022-12-22T03:54:15;99235.20;;;3.83;100.00
62952;BME280;52163;52.212;-1.002;2022-12-22T03:56:41;99236.30;;;3.78;100.00
62952;BME280;52163;52.212;-1.002;2022-12-22T03:59:07;99243.36;;;3.76;100.00
62952;BME280;52163;52.212;-1.002;2022-12-22T04:01:40;99237.02;;;3.77;100.00
62952;BME280;52163;52.212;-1.002;2022-12-22T04:04:06;99235.92;;;3.75;100.00
62952;BME280;52163;52.212;-1.002;2022-12-22T04:06:32;99240.57;;;3.73;100.00
62952;BME280;52163;52.212;-1.002;2022-12-22T04:08:57;99235.67;;;3.70;100.00
62952;BME280;52163;52.212;-1.002;2022-12-22T04:11:23;99240.86;;;3.68;100.00
62952;BME280;52163;52.212;-1.002;2022-12-22T04:14:07;99242.45;;;3.61;100.00
62952;BME280;52163;52.212;-1.002;2022-12-22T04:16:33;99240.89;;;3.53;100.00
62952;BME280;52163;52.212;-1.002;2022-12-22T04:18:58;99242.96;;;3.50;100.00
62952;BME280;52163;52.212;-1.002;2022-12-22T04:21:24;99251.51;;;3.46;100.00
62952;BME280;52163;52.212;-1.002;2022-12-22T04:23:49;99250.48;;;3.43;100.00
62952;BME280;52163;52.212;-1.002;2022-12-22T04:26:19;99241.53;;;3.41;100.00
62952;BME280;52163;52.212;-1.002;2022-12-22T04:28:45;99230.48;;;3.38;100.00
62952;BME280;52163;52.212;-1.002;2022-12-22T04:31:10;99229.90;;;3.36;100.00
62952;BME280;52163;52.212;-1.002;2022-12-22T04:33:36;99235.46;;;3.36;100.00
62952;BME280;52163;52.212;-1.002;2022-12-22T04:36:02;99241.71;;;3.37;100.00
62952;BME280;52163;52.212;-1.002;2022-12-22T04:38:27;99244.90;;;3.36;100.00
62952;BME280;52163;52.212;-1.002;2022-12-22T04:40:53;99248.85;;;3.38;100.00
62952;BME280;52163;52.212;-1.002;2022-12-22T04:43:19;99256.39;;;3.37;100.00
62952;BME280;52163;52.212;-1.002;2022-12-22T04:45:44;99252.52;;;3.38;100.00
62952;BME280;52163;52.212;-1.002;2022-12-22T04:48:09;99251.24;;;3.38;100.00
62952;BME280;52163;52.212;-1.002;2022-12-22T04:50:35;99252.68;;;3.38;100.00
62952;BME280;52163;52.212;-1.002;2022-12-22T04:53:01;99256.80;;;3.39;100.00
62952;BME280;52163;52.212;-1.002;2022-12-22T04:55:26;99253.34;;;3.42;100.00
62952;BME280;52163;52.212;-1.002;2022-12-22T04:57:52;99252.16;;;3.45;100.00
62952;BME280;52163;52.212;-1.002;2022-12-22T05:00:18;99244.65;;;3.44;100.00
62952;BME280;52163;52.212;-1.002;2022-12-22T05:02:44;99237.33;;;3.41;100.00
62952;BME280;52163;52.212;-1.002;2022-12-22T05:05:09;99232.02;;;3.39;100.00
62952;BME280;52163;52.212;-1.002;2022-12-22T05:07:35;99232.84;;;3.36;100.00
62952;BME280;52163;52.212;-1.002;2022-12-22T05:10:03;99234.70;;;3.34;100.00
62952;BME280;52163;52.212;-1.002;2022-12-22T05:12:28;99239.52;;;3.32;100.00
62952;BME280;52163;52.212;-1.002;2022-12-22T05:15:12;99241.34;;;3.27;100.00
62952;BME280;52163;52.212;-1.002;2022-12-22T05:17:38;99243.91;;;3.25;100.00
62952;BME280;52163;52.212;-1.002;2022-12-22T05:20:04;99237.37;;;3.22;100.00
62952;BME280;52163;52.212;-1.002;2022-12-22T05:22:29;99230.86;;;3.21;100.00
62952;BME280;52163;52.212;-1.002;2022-12-22T05:24:55;99231.92;;;3.16;100.00
62952;BME280;52163;52.212;-1.002;2022-12-22T05:27:21;99225.58;;;3.14;100.00
62952;BME280;52163;52.212;-1.002;2022-12-22T05:29:46;99228.74;;;3.13;100.00
62952;BME280;52163;52.212;-1.002;2022-12-22T05:32:12;99229.96;;;3.14;100.00
62952;BME280;52163;52.212;-1.002;2022-12-22T05:34:37;99236.40;;;3.14;100.00
62952;BME280;52163;52.212;-1.002;2022-12-22T05:37:02;99239.55;;;3.14;100.00
62952;BME280;52163;52.212;-1.002;2022-12-22T05:39:28;99242.20;;;3.13;100.00
62952;BME280;52163;52.212;-1.002;2022-12-22T05:41:53;99244.55;;;3.12;100.00
62952;BME280;52163;52.212;-1.002;2022-12-22T05:44:19;99244.38;;;3.11;100.00
62952;BME280;52163;52.212;-1.002;2022-12-22T05:46:44;99244.52;;;3.12;100.00
62952;BME280;52163;52.212;-1.002;2022-12-22T05:49:09;99251.27;;;3.13;100.00
62952;BME280;52163;52.212;-1.002;2022-12-22T05:51:35;99251.78;;;3.17;100.00
62952;BME280;52163;52.212;-1.002;2022-12-22T05:54:00;99252.80;;;3.21;100.00
62952;BME280;52163;52.212;-1.002;2022-12-22T05:56:25;99254.30;;;3.23;100.00
62952;BME280;52163;52.212;-1.002;2022-12-22T05:58:51;99245.15;;;3.24;100.00
62952;BME280;52163;52.212;-1.002;2022-12-22T06:01:16;99240.59;;;3.25;100.00
62952;BME280;52163;52.212;-1.002;2022-12-22T06:03:42;99236.21;;;3.29;100.00
62952;BME280;52163;52.212;-1.002;2022-12-22T06:06:07;99240.30;;;3.34;100.00
62952;BME280;52163;52.212;-1.002;2022-12-22T06:08:32;99248.21;;;3.40;100.00
62952;BME280;52163;52.212;-1.002;2022-12-22T06:10:58;99247.88;;;3.46;100.00
62952;BME280;52163;52.212;-1.002;2022-12-22T06:13:25;99243.50;;;3.53;100.00
62952;BME280;52163;52.212;-1.002;2022-12-22T06:15:50;99252.89;;;3.61;100.00
62952;BME280;52163;52.212;-1.002;2022-12-22T06:18:16;99255.02;;;3.68;100.00
62952;BME280;52163;52.212;-1.002;2022-12-22T06:20:41;99247.41;;;3.73;100.00
62952;BME280;52163;52.212;-1.002;2022-12-22T06:23:06;99242.06;;;3.78;100.00
62952;BME280;52163;52.212;-1.002;2022-12-22T06:25:32;99240.91;;;3.83;100.00
62952;BME280;52163;52.212;-1.002;2022-12-22T06:27:57;99242.45;;;3.91;100.00
62952;BME280;52163;52.212;-1.002;2022-12-22T06:30:23;99237.38;;;3.98;100.00
62952;BME280;52163;52.212;-1.002;2022-12-22T06:32:48;99232.80;;;4.05;100.00
62952;BME280;52163;52.212;-1.002;2022-12-22T06:35:13;99234.87;;;4.08;100.00
62952;BME280;52163;52.212;-1.002;2022-12-22T06:37:39;99231.91;;;4.08;100.00
62952;BME280;52163;52.212;-1.002;2022-12-22T06:40:06;99239.83;;;4.07;100.00
62952;BME280;52163;52.212;-1.002;2022-12-22T06:42:32;99252.30;;;4.06;100.00
62952;BME280;52163;52.212;-1.002;2022-12-22T06:45:16;99251.38;;;4.06;100.00
62952;BME280;52163;52.212;-1.002;2022-12-22T06:47:41;99254.16;;;4.07;100.00
62952;BME280;52163;52.212;-1.002;2022-12-22T06:50:07;99255.45;;;4.06;100.00
62952;BME280;52163;52.212;-1.002;2022-12-22T06:52:33;99253.98;;;4.03;100.00
62952;BME280;52163;52.212;-1.002;2022-12-22T06:54:59;99250.14;;;4.01;100.00
62952;BME280;52163;52.212;-1.002;2022-12-22T06:57:26;99247.32;;;3.98;100.00
62952;BME280;52163;52.212;-1.002;2022-12-22T06:59:52;99245.19;;;3.95;100.00
62952;BME280;52163;52.212;-1.002;2022-12-22T07:02:17;99247.25;;;3.92;100.00
62952;BME280;52163;52.212;-1.002;2022-12-22T07:04:43;99243.83;;;3.91;100.00
62952;BME280;52163;52.212;-1.002;2022-12-22T07:07:09;99242.73;;;3.92;100.00
62952;BME280;52163;52.212;-1.002;2022-12-22T07:09:35;99240.33;;;3.91;100.00
62952;BME280;52163;52.212;-1.002;2022-12-22T07:12:00;99248.75;;;3.90;100.00
62952;BME280;52163;52.212;-1.002;2022-12-22T07:14:25;99250.23;;;3.89;100.00
62952;BME280;52163;52.212;-1.002;2022-12-22T07:16:51;99251.45;;;3.89;100.00
62952;BME280;52163;52.212;-1.002;2022-12-22T07:19:16;99251.50;;;3.88;100.00
62952;BME280;52163;52.212;-1.002;2022-12-22T07:21:42;99247.75;;;3.90;100.00
62952;BME280;52163;52.212;-1.002;2022-12-22T07:24:07;99237.61;;;3.93;100.00
62952;BME280;52163;52.212;-1.002;2022-12-22T07:26:33;99232.96;;;3.98;100.00
62952;BME280;52163;52.212;-1.002;2022-12-22T07:28:58;99232.61;;;3.98;100.00
62952;BME280;52163;52.212;-1.002;2022-12-22T07:31:23;99246.39;;;3.99;100.00
62952;BME280;52163;52.212;-1.002;2022-12-22T07:33:49;99247.90;;;4.00;100.00
62952;BME280;52163;52.212;-1.002;2022-12-22T07:36:19;99249.50;;;3.99;100.00
62952;BME280;52163;52.212;-1.002;2022-12-22T07:38:46;99251.55;;;4.00;100.00
62952;BME280;52163;52.212;-1.002;2022-12-22T07:41:13;99256.50;;;4.02;100.00
62952;BME280;52163;52.212;-1.002;2022-12-22T07:43:59;99262.59;;;4.06;100.00
62952;BME280;52163;52.212;-1.002;2022-12-22T07:46:27;99256.27;;;4.11;100.00
62952;BME280;52163;52.212;-1.002;2022-12-22T07:48:53;99254.27;;;4.16;100.00
62952;BME280;52163;52.212;-1.002;2022-12-22T07:51:38;99256.48;;;4.20;100.00
62952;BME280;52163;52.212;-1.002;2022-12-22T07:54:06;99256.73;;;4.25;100.00
62952;BME280;52163;52.212;-1.002;2022-12-22T07:56:31;99253.36;;;4.29;100.00
62952;BME280;52163;52.212;-1.002;2022-12-22T07:58:57;99248.77;;;4.30;100.00
62952;BME280;52163;52.212;-1.002;2022-12-22T08:01:22;99246.00;;;4.32;100.00
62952;BME280;52163;52.212;-1.002;2022-12-22T08:03:48;99247.17;;;4.37;100.00
62952;BME280;52163;52.212;-1.002;2022-12-22T08:06:14;99244.98;;;4.39;100.00
62952;BME280;52163;52.212;-1.002;2022-12-22T08:08:39;99244.08;;;4.39;100.00
62952;BME280;52163;52.212;-1.002;2022-12-22T08:11:05;99243.56;;;4.42;100.00
62952;BME280;52163;52.212;-1.002;2022-12-22T08:13:30;99243.22;;;4.45;100.00
62952;BME280;52163;52.212;-1.002;2022-12-22T08:16:04;99237.26;;;4.52;100.00
62952;BME280;52163;52.212;-1.002;2022-12-22T08:18:31;99230.80;;;4.58;100.00
62952;BME280;52163;52.212;-1.002;2022-12-22T08:20:57;99229.02;;;4.65;100.00
62952;BME280;52163;52.212;-1.002;2022-12-22T08:23:22;99228.77;;;4.70;100.00
62952;BME280;52163;52.212;-1.002;2022-12-22T08:25:52;99227.40;;;4.72;100.00
62952;BME280;52163;52.212;-1.002;2022-12-22T08:28:20;99224.26;;;4.75;100.00
62952;BME280;52163;52.212;-1.002;2022-12-22T08:30:46;99226.77;;;4.80;100.00
62952;BME280;52163;52.212;-1.002;2022-12-22T08:33:12;99228.88;;;4.86;100.00
62952;BME280;52163;52.212;-1.002;2022-12-22T08:35:37;99227.85;;;4.92;100.00
62952;BME280;52163;52.212;-1.002;2022-12-22T08:38:03;99225.25;;;4.97;100.00
62952;BME280;52163;52.212;-1.002;2022-12-22T08:40:30;99225.63;;;5.03;100.00
62952;BME280;52163;52.212;-1.002;2022-12-22T08:43:03;99225.05;;;5.07;100.00
62952;BME280;52163;52.212;-1.002;2022-12-22T08:45:29;99222.60;;;5.10;100.00
62952;BME280;52163;52.212;-1.002;2022-12-22T08:47:54;99223.17;;;5.13;100.00
62952;BME280;52163;52.212;-1.002;2022-12-22T08:50:20;99218.50;;;5.18;100.00
62952;BME280;52163;52.212;-1.002;2022-12-22T08:52:46;99217.40;;;5.18;100.00
62952;BME280;52163;52.212;-1.002;2022-12-22T08:55:11;99216.33;;;5.19;100.00
62952;BME280;52163;52.212;-1.002;2022-12-22T08:57:37;99217.20;;;5.19;100.00
62952;BME280;52163;52.212;-1.002;2022-12-22T09:00:04;99216.68;;;5.19;100.00
62952;BME280;52163;52.212;-1.002;2022-12-22T09:02:31;99215.44;;;5.19;100.00
62952;BME280;52163;52.212;-1.002;2022-12-22T09:04:57;99220.96;;;5.23;100.00
62952;BME280;52163;52.212;-1.002;2022-12-22T09:07:23;99219.16;;;5.30;100.00
62952;BME280;52163;52.212;-1.002;2022-12-22T09:09:48;99212.80;;;5.37;100.00
62952;BME280;52163;52.212;-1.002;2022-12-22T09:12:14;99210.58;;;5.42;100.00
62952;BME280;52163;52.212;-1.002;2022-12-22T09:14:39;99210.66;;;5.44;100.00
62952;BME280;52163;52.212;-1.002;2022-12-22T09:17:05;99212.75;;;5.47;100.00
62952;BME280;52163;52.212;-1.002;2022-12-22T09:19:30;99209.46;;;5.49;100.00
62952;BME280;52163;52.212;-1.002;2022-12-22T09:21:55;99206.77;;;5.53;100.00
62952;BME280;52163;52.212;-1.002;2022-12-22T09:24:21;99202.17;;;5.54;100.00
62952;BME280;52163;52.212;-1.002;2022-12-22T09:26:47;99199.77;;;5.56;100.00
62952;BME280;52163;52.212;-1.002;2022-12-22T09:29:12;99197.98;;;5.60;100.00
62952;BME280;52163;52.212;-1.002;2022-12-22T09:31:40;99194.10;;;5.63;100.00
62952;BME280;52163;52.212;-1.002;2022-12-22T09:34:06;99192.15;;;5.66;100.00
62952;BME280;52163;52.212;-1.002;2022-12-22T09:36:32;99187.02;;;5.70;100.00
62952;BME280;52163;52.212;-1.002;2022-12-22T09:39:03;99186.52;;;5.73;100.00
62952;BME280;52163;52.212;-1.002;2022-12-22T09:44:09;99179.06;;;5.80;100.00
62952;BME280;52163;52.212;-1.002;2022-12-22T09:46:36;99177.04;;;5.87;100.00
62952;BME280;52163;52.212;-1.002;2022-12-22T09:49:05;99177.06;;;5.92;100.00
62952;BME280;52163;52.212;-1.002;2022-12-22T09:51:33;99173.44;;;5.94;100.00
62952;BME280;52163;52.212;-1.002;2022-12-22T09:54:03;99172.46;;;5.96;100.00
62952;BME280;52163;52.212;-1.002;2022-12-22T09:56:29;99173.61;;;6.00;100.00
62952;BME280;52163;52.212;-1.002;2022-12-22T09:58:55;99172.09;;;6.05;100.00
62952;BME280;52163;52.212;-1.002;2022-12-22T10:06:44;99158.10;;;6.27;100.00
62952;BME280;52163;52.212;-1.002;2022-12-22T10:09:19;99156.19;;;6.30;100.00
62952;BME280;52163;52.212;-1.002;2022-12-22T10:11:53;99158.83;;;6.27;100.00
62952;BME280;52163;52.212;-1.002;2022-12-22T10:14:19;99159.55;;;6.29;100.00
62952;BME280;52163;52.212;-1.002;2022-12-22T10:16:45;99160.05;;;6.32;100.00
62952;BME280;52163;52.212;-1.002;2022-12-22T10:19:11;99158.52;;;6.37;100.00
62952;BME280;52163;52.212;-1.002;2022-12-22T10:21:38;99157.25;;;6.43;100.00
62952;BME280;52163;52.212;-1.002;2022-12-22T10:24:36;99156.17;;;6.49;100.00
62952;BME280;52163;52.212;-1.002;2022-12-22T10:27:02;99157.30;;;6.50;100.00
62952;BME280;52163;52.212;-1.002;2022-12-22T10:29:28;99154.54;;;6.50;100.00
62952;BME280;52163;52.212;-1.002;2022-12-22T10:31:57;99159.17;;;6.54;100.00
62952;BME280;52163;52.212;-1.002;2022-12-22T10:34:23;99161.52;;;6.56;100.00
62952;BME280;52163;52.212;-1.002;2022-12-22T10:36:52;99159.17;;;6.60;100.00
62952;BME280;52163;52.212;-1.002;2022-12-22T10:39:25;99156.38;;;6.68;100.00
62952;BME280;52163;52.212;-1.002;2022-12-22T10:41:53;99155.73;;;6.78;100.00
62952;BME280;52163;52.212;-1.002;2022-12-22T10:44:30;99158.20;;;6.85;100.00
62952;BME280;52163;52.212;-1.002;2022-12-22T10:47:00;99157.97;;;6.92;100.00
62952;BME280;52163;52.212;-1.002;2022-12-22T10:49:37;99151.73;;;7.01;100.00
62952;BME280;52163;52.212;-1.002;2022-12-22T10:52:18;99146.36;;;7.10;100.00
62952;BME280;52163;52.212;-1.002;2022-12-22T10:54:46;99147.66;;;7.15;100.00
62952;BME280;52163;52.212;-1.002;2022-12-22T11:02:22;99136.51;;;7.13;100.00
62952;BME280;52163;52.212;-1.002;2022-12-22T11:04:49;99131.02;;;7.12;100.00
62952;BME280;52163;52.212;-1.002;2022-12-22T11:07:15;99131.54;;;7.12;100.00
62952;BME280;52163;52.212;-1.002;2022-12-22T11:09:42;99126.79;;;7.14;100.00
62952;BME280;52163;52.212;-1.002;2022-12-22T11:12:20;99125.24;;;7.21;100.00
62952;BME280;52163;52.212;-1.002;2022-12-22T11:17:38;99118.81;;;7.44;100.00
62952;BME280;52163;52.212;-1.002;2022-12-22T11:23:40;99111.80;;;7.59;100.00
62952;BME280;52163;52.212;-1.002;2022-12-22T11:34:49;99088.14;;;7.90;100.00
62952;BME280;52163;52.212;-1.002;2022-12-22T11:50:55;99084.69;;;8.21;100.00
62952;BME280;52163;52.212;-1.002;2022-12-22T11:53:48;99082.39;;;8.26;100.00
62952;BME280;52163;52.212;-1.002;2022-12-22T11:56:21;99081.00;;;8.24;100.00
62952;BME280;52163;52.212;-1.002;2022-12-22T12:07:27;99058.64;;;8.45;100.00
62952;BME280;52163;52.212;-1.002;2022-12-22T12:10:02;99054.52;;;8.54;100.00
62952;BME280;52163;52.212;-1.002;2022-12-22T12:12:53;99047.73;;;8.60;100.00
62952;BME280;52163;52.212;-1.002;2022-12-22T12:15:37;99040.22;;;8.62;100.00
62952;BME280;52163;52.212;-1.002;2022-12-22T12:21:27;99026.80;;;8.67;100.00
62952;BME280;52163;52.212;-1.002;2022-12-22T12:29:36;99016.53;;;8.80;100.00
62952;BME280;52163;52.212;-1.002;2022-12-22T12:32:39;99011.09;;;8.84;100.00
62952;BME280;52163;52.212;-1.002;2022-12-22T12:35:12;99006.67;;;8.86;100.00
62952;BME280;52163;52.212;-1.002;2022-12-22T12:37:47;98999.30;;;8.88;100.00
62952;BME280;52163;52.212;-1.002;2022-12-22T12:43:02;98988.84;;;8.96;100.00
62952;BME280;52163;52.212;-1.002;2022-12-22T12:45:38;98987.73;;;9.01;100.00
62952;BME280;52163;52.212;-1.002;2022-12-22T12:50:48;98981.98;;;9.21;100.00
62952;BME280;52163;52.212;-1.002;2022-12-22T12:53:14;98980.54;;;9.28;100.00
62952;BME280;52163;52.212;-1.002;2022-12-22T13:00:57;98981.00;;;9.53;100.00
62952;BME280;52163;52.212;-1.002;2022-12-22T13:08:20;98982.52;;;9.78;100.00
62952;BME280;52163;52.212;-1.002;2022-12-22T13:24:01;98988.69;;;9.87;100.00
62952;BME280;52163;52.212;-1.002;2022-12-22T13:26:35;98978.96;;;9.83;100.00
62952;BME280;52163;52.212;-1.002;2022-12-22T13:29:38;98975.30;;;9.81;100.00
62952;BME280;52163;52.212;-1.002;2022-12-22T13:32:27;98971.98;;;9.78;100.00
62952;BME280;52163;52.212;-1.002;2022-12-22T13:37:46;98976.86;;;9.81;100.00
62952;BME280;52163;52.212;-1.002;2022-12-22T13:40:18;98975.09;;;9.83;100.00
62952;BME280;52163;52.212;-1.002;2022-12-22T13:42:47;98971.36;;;9.85;100.00
62952;BME280;52163;52.212;-1.002;2022-12-22T13:47:52;98972.01;;;9.91;100.00
62952;BME280;52163;52.212;-1.002;2022-12-22T13:50:28;98972.94;;;9.93;100.00
62952;BME280;52163;52.212;-1.002;2022-12-22T13:52:56;98974.38;;;9.92;100.00
62952;BME280;52163;52.212;-1.002;2022-12-22T13:55:25;98973.58;;;9.96;100.00
62952;BME280;52163;52.212;-1.002;2022-12-22T13:57:53;98975.35;;;9.98;100.00
62952;BME280;52163;52.212;-1.002;2022-12-22T14:00:23;98969.69;;;9.98;100.00
62952;BME280;52163;52.212;-1.002;2022-12-22T14:02:49;98971.65;;;9.95;100.00
62952;BME280;52163;52.212;-1.002;2022-12-22T14:05:16;98971.77;;;9.94;100.00
62952;BME280;52163;52.212;-1.002;2022-12-22T14:08:05;98969.27;;;9.94;100.00
62952;BME280;52163;52.212;-1.002;2022-12-22T14:10:38;98960.91;;;9.97;100.00
62952;BME280;52163;52.212;-1.002;2022-12-22T14:13:13;98955.48;;;9.97;100.00
62952;BME280;52163;52.212;-1.002;2022-12-22T14:15:39;98953.83;;;10.00;100.00
62952;BME280;52163;52.212;-1.002;2022-12-22T14:18:05;98953.03;;;10.01;100.00
62952;BME280;52163;52.212;-1.002;2022-12-22T14:20:36;98954.70;;;10.02;100.00
62952;BME280;52163;52.212;-1.002;2022-12-22T14:23:41;98951.59;;;10.06;100.00
62952;BME280;52163;52.212;-1.002;2022-12-22T14:26:00;98955.86;;;10.13;100.00
62952;BME280;52163;52.212;-1.002;2022-12-22T14:28:41;98958.46;;;10.21;100.00
62952;BME280;52163;52.212;-1.002;2022-12-22T14:31:15;98958.80;;;10.27;100.00
62952;BME280;52163;52.212;-1.002;2022-12-22T14:33:51;98960.63;;;10.30;100.00
62952;BME280;52163;52.212;-1.002;2022-12-22T14:36:35;98958.46;;;10.29;100.00
62952;BME280;52163;52.212;-1.002;2022-12-22T14:39:07;98954.45;;;10.28;100.00
62952;BME280;52163;52.212;-1.002;2022-12-22T14:41:47;98959.22;;;10.26;100.00
62952;BME280;52163;52.212;-1.002;2022-12-22T14:47:02;98961.15;;;10.20;100.00
62952;BME280;52163;52.212;-1.002;2022-12-22T14:49:29;98965.16;;;10.16;100.00
62952;BME280;52163;52.212;-1.002;2022-12-22T14:51:55;98966.54;;;10.10;100.00
62952;BME280;52163;52.212;-1.002;2022-12-22T14:54:25;98968.97;;;10.04;100.00
62952;BME280;52163;52.212;-1.002;2022-12-22T14:56:54;98965.77;;;10.05;100.00
62952;BME280;52163;52.212;-1.002;2022-12-22T14:59:27;98966.31;;;10.09;100.00
62952;BME280;52163;52.212;-1.002;2022-12-22T15:02:01;98962.89;;;10.14;100.00
62952;BME280;52163;52.212;-1.002;2022-12-22T15:04:28;98960.58;;;10.16;100.00
62952;BME280;52163;52.212;-1.002;2022-12-22T15:07:13;98962.02;;;10.20;100.00
62952;BME280;52163;52.212;-1.002;2022-12-22T15:09:39;98963.57;;;10.23;100.00